Indian Valley, Virginia
Current Conditions -  °F | °C
As of 6:35 PM on Wednesday 22 Oct 2014 (Local Time) from KPSK Reporting Station
Overcast Overcast  
Wind Chill: 45°   Ceiling: 2400
Heat Index: 49°   Visibility: 10mi
Dew Point: 42°   Wind: 7mph
Humidity: 77%   Direction: 340°NNW
Pressure: 30.13"   Gusts: NA
Location:  36.91°N, 80.55°W
Report Text: KPSK 222235Z AUTO 34006KT 300V360 10SM OVC024 09/05 A3013 RMK AO2 T00920054
Loading
Personal Weather Stations






























Interactive Weather Map
Tropical Storm Tracking
New forecast layout! Learn more

10-Day Weather Forecast

Advertisements
Track Severe Weather on mobile